Time;durP1;ratioP1;P1;durP2;ratioP2;P2;SDS_P1;SDS_P2;PMS_P1;PMS_P2;Temp;Humidity;BMP_temperature;BMP_pressure;BME280_temperature;BME280_humidity;BME280_pressure;Samples;Min_cycle;Max_cycle;Signal;HPM_P1;HPM_P2
2022/09/18 00:01:21;;;;;;;12.70;7.50;;;10.30;99.90;;;;;;4917231;29;20211;-74
2022/09/18 00:03:48;;;;;;;12.00;7.50;;;10.30;99.90;;;;;;4917017;29;20224;-73
2022/09/18 00:06:19;;;;;;;11.67;7.43;;;10.40;99.90;;;;;;4918835;29;20281;-74
2022/09/18 00:08:51;;;;;;;9.17;6.47;;;10.40;99.90;;;;;;4918597;29;20195;-74
2022/09/18 00:11:21;;;;;;;12.70;6.80;;;10.30;99.90;;;;;;4918502;29;20623;-74
2022/09/18 00:13:48;;;;;;;11.27;6.90;;;10.40;99.90;;;;;;4918574;29;20207;-74
2022/09/18 00:16:17;;;;;;;11.97;6.60;;;10.50;99.90;;;;;;4937369;29;20250;-74
2022/09/18 00:18:44;;;;;;;10.57;6.83;;;10.60;99.90;;;;;;4935908;29;20231;-74
2022/09/18 00:21:20;;;;;;;10.67;6.37;;;10.60;99.90;;;;;;4935838;29;20206;-74
2022/09/18 00:23:47;;;;;;;12.30;6.20;;;10.60;99.90;;;;;;4935948;29;20213;-74
2022/09/18 00:26:16;;;;;;;11.50;6.57;;;10.60;99.90;;;;;;4936081;29;20199;-74
2022/09/18 00:28:45;;;;;;;10.27;6.33;;;10.50;99.90;;;;;;4935514;29;20282;-74
2022/09/18 00:31:24;;;;;;;13.07;6.90;;;10.50;99.90;;;;;;4935840;29;20203;-74
2022/09/18 00:33:52;;;;;;;12.17;6.57;;;10.50;99.90;;;;;;4935639;29;20278;-74
2022/09/18 00:36:19;;;;;;;12.53;6.63;;;10.50;99.90;;;;;;4935615;29;20644;-74
2022/09/18 00:38:46;;;;;;;15.47;6.37;;;10.50;99.90;;;;;;4935807;29;20223;-74
2022/09/18 00:41:25;;;;;;;9.43;6.23;;;10.50;99.90;;;;;;4935566;29;20561;-74
2022/09/18 00:44:11;;;;;;;9.97;6.17;;;10.60;99.90;;;;;;4936114;29;20205;-73
2022/09/18 00:46:38;;;;;;;9.37;6.23;;;10.60;99.90;;;;;;4935808;29;20206;-74
2022/09/18 00:49:24;;;;;;;13.70;6.63;;;10.70;99.90;;;;;;4920207;29;20684;-74
2022/09/18 00:51:54;;;;;;;8.80;6.00;;;10.70;99.90;;;;;;4916390;29;20199;-74
2022/09/18 00:54:32;;;;;;;10.97;6.20;;;10.70;99.90;;;;;;4916495;29;20206;-76
2022/09/18 00:57:03;;;;;;;8.57;6.10;;;10.70;99.90;;;;;;4916206;29;20203;-74
2022/09/18 00:59:33;;;;;;;10.77;6.30;;;10.70;99.90;;;;;;4916631;29;20200;-74
2022/09/18 01:02:01;;;;;;;10.43;6.00;;;10.70;99.90;;;;;;4916091;29;20195;-74
2022/09/18 01:04:29;;;;;;;12.23;6.40;;;10.70;99.90;;;;;;4915934;29;20219;-74
2022/09/18 01:07:04;;;;;;;9.80;6.40;;;10.60;99.90;;;;;;4917646;29;20255;-74
2022/09/18 01:09:47;;;;;;;10.77;5.83;;;10.60;99.90;;;;;;4916083;29;20241;-74
2022/09/18 01:12:37;;;;;;;12.90;6.50;;;10.60;99.90;;;;;;4916127;29;20725;-74
2022/09/18 01:15:29;;;;;;;10.80;5.67;;;10.60;99.90;;;;;;4916017;29;20206;-74
2022/09/18 01:18:17;;;;;;;22.83;7.67;;;10.50;99.90;;;;;;4917346;29;20638;-75
2022/09/18 01:20:43;;;;;;;11.30;5.97;;;10.50;99.90;;;;;;4915852;29;20206;-73
2022/09/18 01:23:45;;;;;;;11.73;6.20;;;10.40;99.90;;;;;;4915915;29;20711;-76
2022/09/18 01:26:27;;;;;;;10.80;5.67;;;10.50;99.90;;;;;;4915799;29;20195;-74
2022/09/18 01:29:32;;;;;;;13.67;6.53;;;10.60;99.90;;;;;;4916164;29;20204;-74
2022/09/18 01:32:23;;;;;;;12.13;6.40;;;10.60;99.90;;;;;;4915606;29;20215;-75
2022/09/18 01:35:12;;;;;;;11.87;5.80;;;10.50;99.90;;;;;;4915711;29;20290;-74
2022/09/18 01:38:26;;;;;;;11.30;5.33;;;10.60;99.90;;;;;;4916959;29;20275;-76
2022/09/18 01:40:57;;;;;;;10.40;5.80;;;10.60;99.90;;;;;;4910062;29;20208;-75
2022/09/18 01:43:27;;;;;;;11.00;5.93;;;10.70;99.90;;;;;;4915610;29;20206;-74
2022/09/18 01:45:58;;;;;;;11.27;5.80;;;10.70;99.90;;;;;;4915728;29;20200;-74
2022/09/18 01:48:32;;;;;;;13.03;6.60;;;10.70;99.90;;;;;;4915804;29;20208;-76
2022/09/18 01:51:11;;;;;;;9.10;5.90;;;10.60;99.90;;;;;;4916689;29;20195;-74
2022/09/18 01:53:42;;;;;;;12.53;6.47;;;10.60;99.90;;;;;;4916836;29;20202;-74
2022/09/18 01:56:20;;;;;;;11.13;6.53;;;10.50;99.90;;;;;;4915379;29;20203;-76
2022/09/18 01:58:50;;;;;;;11.23;6.50;;;10.50;99.90;;;;;;4899737;29;20230;-76
2022/09/18 02:01:20;;;;;;;11.07;5.83;;;10.50;99.90;;;;;;4915364;29;20566;-74
2022/09/18 02:03:52;;;;;;;19.50;6.63;;;10.50;99.90;;;;;;4915331;29;20250;-73
2022/09/18 02:06:25;;;;;;;13.90;6.13;;;10.60;99.90;;;;;;4915281;29;20654;-77
2022/09/18 02:08:55;;;;;;;19.30;6.20;;;10.60;99.90;;;;;;4916125;29;20211;-74
2022/09/18 02:11:22;;;;;;;10.27;5.87;;;10.60;99.90;;;;;;4915410;29;20600;-74
2022/09/18 02:13:56;;;;;;;11.53;5.50;;;10.50;99.90;;;;;;4915189;29;20631;-73
2022/09/18 02:16:31;;;;;;;11.50;5.77;;;10.60;99.90;;;;;;4915680;29;20203;-74
2022/09/18 02:19:07;;;;;;;12.70;6.13;;;10.60;99.90;;;;;;4915325;29;20700;-74
2022/09/18 02:21:36;;;;;;;10.67;5.63;;;10.50;99.90;;;;;;4917541;29;20199;-74
2022/09/18 02:24:07;;;;;;;10.53;5.67;;;10.50;99.90;;;;;;4919162;29;20204;-74
2022/09/18 02:26:37;;;;;;;11.23;5.70;;;10.70;99.90;;;;;;4918730;29;20210;-77
2022/09/18 02:29:06;;;;;;;11.90;5.83;;;10.60;99.90;;;;;;4919217;29;20211;-73
2022/09/18 02:31:35;;;;;;;11.33;6.23;;;10.60;99.90;;;;;;4919119;29;20195;-74
2022/09/18 02:34:03;;;;;;;12.10;6.13;;;10.60;99.90;;;;;;4919030;29;20210;-73
2022/09/18 02:37:01;;;;;;;11.17;6.27;;;10.70;99.90;;;;;;4918981;29;20200;-73
2022/09/18 02:39:51;;;;;;;16.07;6.47;;;10.60;99.90;;;;;;4919121;29;20223;-73
2022/09/18 02:42:33;;;;;;;14.10;7.07;;;10.70;99.90;;;;;;4918782;29;20199;-73
2022/09/18 02:45:09;;;;;;;12.50;6.73;;;10.70;99.90;;;;;;4920375;29;20191;-74
2022/09/18 02:47:55;;;;;;;16.47;7.60;;;10.80;99.90;;;;;;4918735;29;20561;-74
2022/09/18 02:50:37;;;;;;;14.07;8.43;;;10.60;99.90;;;;;;4918634;29;20298;-74
2022/09/18 02:53:15;;;;;;;16.47;8.27;;;10.50;99.90;;;;;;4918615;29;20211;-73
2022/09/18 02:55:58;;;;;;;12.27;7.77;;;10.50;99.90;;;;;;4918663;29;20199;-74
2022/09/18 02:58:44;;;;;;;14.43;8.50;;;10.60;99.90;;;;;;4918506;29;20223;-74
2022/09/18 03:01:13;;;;;;;17.30;8.30;;;10.60;99.90;;;;;;4918416;29;20207;-74
2022/09/18 03:03:41;;;;;;;16.23;8.57;;;10.60;99.90;;;;;;4918333;29;20230;-74
2022/09/18 03:06:08;;;;;;;19.13;8.90;;;10.50;99.90;;;;;;4919633;29;20192;-74
2022/09/18 03:08:35;;;;;;;19.03;9.77;;;10.50;99.90;;;;;;4918323;29;20234;-73
2022/09/18 03:11:02;;;;;;;17.23;9.50;;;10.40;99.90;;;;;;4931777;29;20203;-74
2022/09/18 03:13:29;;;;;;;18.37;9.70;;;10.50;99.90;;;;;;4930537;29;20576;-73
2022/09/18 03:15:56;;;;;;;19.37;10.03;;;10.50;99.90;;;;;;4918349;29;20222;-74
2022/09/18 03:18:24;;;;;;;16.17;9.70;;;10.50;99.90;;;;;;4918076;29;20606;-74
2022/09/18 03:20:51;;;;;;;17.90;10.67;;;10.50;99.90;;;;;;4918056;29;20207;-75
2022/09/18 03:23:18;;;;;;;17.17;9.97;;;10.50;99.90;;;;;;4918013;29;20290;-75
2022/09/18 03:25:48;;;;;;;18.13;10.13;;;10.50;99.90;;;;;;4922238;29;20555;-74
2022/09/18 03:28:16;;;;;;;19.37;11.00;;;10.50;99.90;;;;;;4938115;29;20290;-76
2022/09/18 03:30:44;;;;;;;19.77;10.67;;;10.60;99.90;;;;;;4937208;29;20207;-74
2022/09/18 03:33:11;;;;;;;22.17;12.03;;;10.50;99.90;;;;;;4936785;29;20600;-73
2022/09/18 03:35:38;;;;;;;19.43;11.33;;;10.50;99.90;;;;;;4938057;29;20560;-74
2022/09/18 03:38:04;;;;;;;17.60;10.87;;;10.60;99.90;;;;;;4936928;29;20249;-74
2022/09/18 03:40:32;;;;;;;19.90;11.20;;;10.70;99.90;;;;;;4936871;29;20298;-75
2022/09/18 03:42:58;;;;;;;22.07;12.10;;;10.80;99.90;;;;;;4936860;29;20199;-73
2022/09/18 03:45:25;;;;;;;22.80;12.27;;;10.80;99.90;;;;;;4938332;29;20207;-74
2022/09/18 03:47:52;;;;;;;21.03;11.73;;;10.80;99.90;;;;;;4936720;29;20199;-74
2022/09/18 03:50:19;;;;;;;21.70;11.70;;;10.80;99.90;;;;;;4937044;29;20195;-73
2022/09/18 03:52:47;;;;;;;20.47;12.23;;;10.80;99.90;;;;;;4936401;29;20234;-74
2022/09/18 03:55:17;;;;;;;20.23;11.37;;;10.70;99.90;;;;;;4936681;29;20656;-74
2022/09/18 03:57:49;;;;;;;21.87;11.73;;;10.70;99.90;;;;;;4936292;29;20202;-74
2022/09/18 04:00:16;;;;;;;21.20;11.53;;;10.70;99.90;;;;;;4923444;29;20223;-74
2022/09/18 04:02:43;;;;;;;22.33;11.73;;;10.70;99.90;;;;;;4917229;29;20204;-74
2022/09/18 04:05:10;;;;;;;21.50;10.70;;;10.80;99.90;;;;;;4917271;29;20680;-73
2022/09/18 04:07:37;;;;;;;23.97;10.43;;;10.70;99.90;;;;;;4918621;29;20207;-74
2022/09/18 04:10:05;;;;;;;25.67;10.30;;;10.80;99.90;;;;;;4917453;29;20233;-74
2022/09/18 04:12:32;;;;;;;23.77;9.77;;;10.60;99.90;;;;;;4918481;29;20204;-73
2022/09/18 04:14:59;;;;;;;22.73;10.17;;;10.70;99.90;;;;;;4917624;29;20565;-74
2022/09/18 04:17:27;;;;;;;16.93;9.97;;;10.70;99.90;;;;;;4918446;29;20216;-74
2022/09/18 04:19:54;;;;;;;18.63;9.40;;;10.60;99.90;;;;;;4918190;29;20226;-73
2022/09/18 04:22:21;;;;;;;19.67;10.20;;;10.70;99.90;;;;;;4918245;29;20553;-74
2022/09/18 04:24:49;;;;;;;17.03;9.27;;;10.80;99.90;;;;;;4918435;29;20200;-74
2022/09/18 04:27:16;;;;;;;18.77;9.63;;;10.80;99.90;;;;;;4918017;29;20231;-74
2022/09/18 04:29:43;;;;;;;16.47;8.93;;;10.90;99.90;;;;;;4917051;29;20207;-73
2022/09/18 04:32:10;;;;;;;20.50;9.30;;;10.80;99.90;;;;;;4916922;29;20204;-74
2022/09/18 04:34:37;;;;;;;16.70;9.10;;;10.90;99.90;;;;;;4916919;29;20217;-73
2022/09/18 04:37:04;;;;;;;17.93;9.33;;;10.90;99.90;;;;;;4936996;29;20209;-73
2022/09/18 04:39:36;;;;;;;19.97;8.93;;;10.90;99.90;;;;;;4927145;29;20261;-73
2022/09/18 04:42:03;;;;;;;19.57;9.63;;;10.90;99.90;;;;;;4925093;29;20242;-74
2022/09/18 04:44:31;;;;;;;19.17;9.43;;;11.00;99.90;;;;;;4935533;29;20244;-74
2022/09/18 04:46:57;;;;;;;20.93;9.90;;;10.90;99.90;;;;;;4935833;29;20205;-74
2022/09/18 04:49:24;;;;;;;16.97;9.50;;;11.00;99.90;;;;;;4936802;29;20556;-74
2022/09/18 04:51:51;;;;;;;22.33;9.43;;;11.00;99.90;;;;;;4935637;29;20198;-74
2022/09/18 04:54:18;;;;;;;15.93;9.63;;;10.90;99.90;;;;;;4935580;29;20199;-73
2022/09/18 04:56:45;;;;;;;18.97;8.73;;;10.80;99.90;;;;;;4935426;29;20202;-74
2022/09/18 04:59:12;;;;;;;18.63;9.20;;;10.90;99.90;;;;;;4935374;29;20230;-73
2022/09/18 05:01:39;;;;;;;21.47;9.00;;;11.00;99.90;;;;;;4936582;29;20573;-73
2022/09/18 05:04:06;;;;;;;16.43;8.33;;;11.10;99.90;;;;;;4936315;29;20297;-74
2022/09/18 05:06:33;;;;;;;15.03;7.97;;;11.00;99.90;;;;;;4935255;29;20199;-75
2022/09/18 05:09:00;;;;;;;16.20;7.70;;;10.90;99.90;;;;;;4935204;29;20608;-75
2022/09/18 05:11:28;;;;;;;14.63;7.40;;;10.90;99.90;;;;;;4935284;29;20199;-75
2022/09/18 05:13:55;;;;;;;15.13;7.43;;;11.00;99.90;;;;;;4935264;29;20653;-76
2022/09/18 05:16:23;;;;;;;16.70;7.87;;;10.90;99.90;;;;;;4935284;29;20233;-75
2022/09/18 05:18:51;;;;;;;16.77;7.53;;;11.00;99.90;;;;;;4920689;29;20244;-75
2022/09/18 05:21:18;;;;;;;16.00;7.80;;;11.10;99.90;;;;;;4916089;29;20224;-75
2022/09/18 05:23:45;;;;;;;11.87;7.57;;;11.20;99.90;;;;;;4915947;29;20294;-75
2022/09/18 05:26:13;;;;;;;14.60;6.97;;;11.20;99.90;;;;;;4915851;29;20203;-76
2022/09/18 05:28:40;;;;;;;12.90;8.33;;;11.20;99.90;;;;;;4915615;29;20586;-76
2022/09/18 05:31:07;;;;;;;18.57;8.27;;;11.10;99.90;;;;;;4915906;29;20721;-75
2022/09/18 05:33:35;;;;;;;13.93;8.10;;;10.90;99.90;;;;;;4915763;29;20630;-77
2022/09/18 05:36:04;;;;;;;15.27;8.33;;;10.90;99.90;;;;;;4915972;29;20713;-74
2022/09/18 05:38:31;;;;;;;20.60;8.40;;;11.00;99.90;;;;;;4917280;29;20317;-74
2022/09/18 05:41:00;;;;;;;14.57;8.00;;;11.00;99.90;;;;;;4933967;29;20198;-74
2022/09/18 05:43:28;;;;;;;17.20;8.00;;;11.00;99.90;;;;;;4919269;29;20232;-75
2022/09/18 05:45:56;;;;;;;13.07;8.00;;;11.10;99.90;;;;;;4915638;29;20210;-76
2022/09/18 05:48:23;;;;;;;29.80;9.57;;;11.20;99.90;;;;;;4915562;29;20693;-75
2022/09/18 05:50:55;;;;;;;16.80;8.30;;;11.20;99.90;;;;;;4915593;29;20280;-74
2022/09/18 05:53:22;;;;;;;14.70;7.93;;;11.10;99.90;;;;;;4915342;29;20210;-74
2022/09/18 05:55:49;;;;;;;14.40;8.17;;;11.00;99.90;;;;;;4914817;29;20212;-76
2022/09/18 05:58:18;;;;;;;16.57;8.73;;;11.00;99.90;;;;;;4916563;29;20318;-75
2022/09/18 06:00:46;;;;;;;17.33;8.87;;;11.20;99.90;;;;;;4915758;29;20200;-76
2022/09/18 06:03:14;;;;;;;15.43;9.50;;;11.20;99.90;;;;;;4923213;29;20286;-75
2022/09/18 06:05:42;;;;;;;16.73;9.63;;;11.10;99.90;;;;;;4915636;29;20233;-75
2022/09/18 06:08:11;;;;;;;18.60;9.30;;;11.00;99.90;;;;;;4916811;29;20214;-75
2022/09/18 06:10:39;;;;;;;14.47;8.77;;;10.90;99.90;;;;;;4932019;29;20203;-75
2022/09/18 06:13:09;;;;;;;14.07;8.67;;;10.90;99.90;;;;;;4925726;29;20201;-74
2022/09/18 06:15:36;;;;;;;13.40;8.13;;;10.90;99.90;;;;;;4918204;29;20250;-75
2022/09/18 06:18:05;;;;;;;21.77;9.03;;;11.00;99.90;;;;;;4931079;29;20211;-75
2022/09/18 06:20:34;;;;;;;13.40;8.53;;;11.00;99.90;;;;;;4917603;29;20238;-75
2022/09/18 06:23:02;;;;;;;16.87;8.60;;;10.80;99.90;;;;;;4915235;29;20211;-75
2022/09/18 06:25:29;;;;;;;13.07;8.07;;;10.90;99.90;;;;;;4915449;29;20200;-74
2022/09/18 06:28:00;;;;;;;12.73;8.20;;;10.90;99.90;;;;;;4915115;29;20231;-75
2022/09/18 06:30:29;;;;;;;12.60;8.03;;;10.90;99.90;;;;;;4915388;29;20204;-75
2022/09/18 06:33:02;;;;;;;11.67;7.77;;;10.80;99.90;;;;;;4915163;29;20646;-77
2022/09/18 06:35:29;;;;;;;13.13;7.40;;;10.80;99.90;;;;;;4914973;29;20233;-76
2022/09/18 06:38:01;;;;;;;16.83;7.67;;;10.90;99.90;;;;;;4916357;29;20199;-76
2022/09/18 06:40:30;;;;;;;14.53;8.17;;;10.90;99.90;;;;;;4915291;29;20664;-76
2022/09/18 06:42:58;;;;;;;13.67;8.03;;;10.90;99.90;;;;;;4915066;29;20207;-75
2022/09/18 06:45:25;;;;;;;11.50;7.53;;;10.80;99.90;;;;;;4915419;29;20296;-76
2022/09/18 06:47:53;;;;;;;14.37;7.37;;;10.80;99.90;;;;;;4915046;29;20254;-76
2022/09/18 06:50:21;;;;;;;10.63;6.27;;;10.90;99.90;;;;;;4915341;29;20217;-75
2022/09/18 06:52:49;;;;;;;8.67;5.53;;;10.90;99.90;;;;;;4914987;29;20248;-76
2022/09/18 06:55:17;;;;;;;8.00;4.63;;;10.80;99.90;;;;;;4916412;29;20283;-76
2022/09/18 06:58:00;;;;;;;7.00;4.27;;;10.70;99.90;;;;;;4914854;29;20199;-76
2022/09/18 07:00:28;;;;;;;8.90;4.10;;;10.60;99.90;;;;;;4915143;29;20283;-76
2022/09/18 07:02:55;;;;;;;8.70;4.50;;;10.60;99.90;;;;;;4915031;29;20219;-76
2022/09/18 07:05:24;;;;;;;10.47;4.70;;;10.70;99.90;;;;;;4916581;29;20310;-76
2022/09/18 07:07:51;;;;;;;9.07;4.43;;;10.60;99.90;;;;;;4917955;29;20689;-75
2022/09/18 07:10:18;;;;;;;8.67;4.77;;;10.50;99.90;;;;;;4918350;29;20238;-76
2022/09/18 07:12:47;;;;;;;8.00;4.80;;;10.50;99.90;;;;;;4924432;29;20199;-76
2022/09/18 07:15:18;;;;;;;10.30;5.33;;;10.50;99.90;;;;;;4937719;29;20218;-75
2022/09/18 07:17:45;;;;;;;9.60;5.23;;;10.50;99.90;;;;;;4937331;29;20206;-75
2022/09/18 07:20:13;;;;;;;10.90;5.63;;;10.40;99.90;;;;;;4937005;29;20265;-74
2022/09/18 07:22:41;;;;;;;10.23;5.30;;;10.50;99.90;;;;;;4937204;29;20195;-75
2022/09/18 07:25:13;;;;;;;9.33;6.10;;;10.40;99.90;;;;;;4937346;29;20300;-75
2022/09/18 07:27:39;;;;;;;9.50;5.47;;;10.30;99.90;;;;;;4937169;29;20642;-75
2022/09/18 07:30:07;;;;;;;9.10;5.63;;;10.30;99.90;;;;;;4937228;29;20205;-75
2022/09/18 07:32:34;;;;;;;9.70;5.87;;;10.30;99.90;;;;;;4921885;29;20218;-76
2022/09/18 07:35:01;;;;;;;10.20;5.47;;;10.30;99.90;;;;;;4936629;29;20376;-74
2022/09/18 07:37:28;;;;;;;11.33;5.20;;;10.20;99.90;;;;;;4936958;29;20187;-75
2022/09/18 07:39:55;;;;;;;17.00;6.27;;;10.20;99.90;;;;;;4936665;29;20237;-76
2022/09/18 07:42:22;;;;;;;8.87;5.17;;;10.20;99.90;;;;;;4936839;29;20577;-75
2022/09/18 07:44:49;;;;;;;8.77;5.00;;;10.10;99.90;;;;;;4936809;29;20195;-75
2022/09/18 07:47:16;;;;;;;10.17;5.10;;;10.10;99.90;;;;;;4938107;29;20203;-75
2022/09/18 07:49:43;;;;;;;11.57;5.40;;;10.10;99.90;;;;;;4936755;29;20261;-75
2022/09/18 07:52:10;;;;;;;9.43;5.23;;;10.00;99.90;;;;;;4936558;29;20198;-75
2022/09/18 07:54:37;;;;;;;8.30;5.50;;;10.00;99.90;;;;;;4936735;29;20218;-75
2022/09/18 07:57:04;;;;;;;10.40;5.87;;;9.90;99.90;;;;;;4936552;29;20220;-75
2022/09/18 07:59:31;;;;;;;9.30;6.03;;;9.90;99.90;;;;;;4936639;29;20215;-75
2022/09/18 08:01:58;;;;;;;13.27;6.33;;;9.90;99.90;;;;;;4936722;29;20680;-75
2022/09/18 08:04:25;;;;;;;9.40;6.00;;;10.00;99.90;;;;;;4936327;29;20731;-75
2022/09/18 08:06:53;;;;;;;11.57;7.50;;;10.00;99.90;;;;;;4936282;29;20207;-75
2022/09/18 08:09:21;;;;;;;12.33;7.17;;;10.00;99.90;;;;;;4936258;29;20640;-74
2022/09/18 08:11:53;;;;;;;9.63;6.90;;;10.10;99.90;;;;;;4936324;29;20205;-74
2022/09/18 08:14:20;;;;;;;11.87;6.47;;;10.10;99.90;;;;;;4936189;29;20206;-74
2022/09/18 08:16:53;;;;;;;10.47;6.37;;;10.00;99.90;;;;;;4936260;29;20568;-76
2022/09/18 08:19:20;;;;;;;8.73;6.20;;;9.90;99.90;;;;;;4935287;29;20226;-75
2022/09/18 08:21:47;;;;;;;10.50;6.40;;;9.70;99.90;;;;;;4935937;29;20254;-75
2022/09/18 08:24:16;;;;;;;8.93;6.03;;;9.60;99.90;;;;;;4931031;29;22754;-74
2022/09/18 08:26:43;;;;;;;11.57;6.20;;;9.60;99.90;;;;;;4922307;29;20731;-75
2022/09/18 08:29:17;;;;;;;10.57;6.17;;;9.70;99.90;;;;;;4920370;29;20207;-74
2022/09/18 08:31:46;;;;;;;10.33;5.43;;;9.70;99.90;;;;;;4917053;29;20301;-75
2022/09/18 08:34:14;;;;;;;13.03;5.70;;;9.70;99.90;;;;;;4917984;29;20210;-75
2022/09/18 08:36:41;;;;;;;10.57;6.33;;;9.70;99.90;;;;;;4901535;29;20213;-74
2022/09/18 08:39:09;;;;;;;8.77;5.30;;;9.60;99.90;;;;;;4916651;29;20204;-74
2022/09/18 08:41:39;;;;;;;8.23;5.10;;;9.50;99.90;;;;;;4916982;29;20554;-75
2022/09/18 08:44:16;;;;;;;9.00;4.93;;;9.50;99.90;;;;;;4926168;29;20250;-74
2022/09/18 08:46:49;;;;;;;9.50;4.90;;;9.40;99.90;;;;;;4935503;29;20663;-74
2022/09/18 08:49:26;;;;;;;7.23;4.70;;;9.40;99.90;;;;;;4936856;29;20645;-76
2022/09/18 08:51:57;;;;;;;9.43;5.00;;;9.50;99.90;;;;;;4936607;29;20203;-74
2022/09/18 08:54:34;;;;;;;8.90;4.80;;;9.60;99.90;;;;;;4935224;29;20203;-73
2022/09/18 08:57:10;;;;;;;6.93;4.50;;;9.70;99.90;;;;;;4935306;29;20210;-73
2022/09/18 08:59:46;;;;;;;9.67;5.00;;;9.60;99.90;;;;;;4935168;29;20218;-71
2022/09/18 09:02:32;;;;;;;11.83;4.80;;;9.80;99.90;;;;;;4935208;29;20712;-73
2022/09/18 09:05:05;;;;;;;8.83;4.43;;;9.80;99.90;;;;;;4934971;29;20222;-72
2022/09/18 09:08:02;;;;;;;9.37;4.50;;;9.90;99.90;;;;;;4922583;29;20240;-73
2022/09/18 09:10:38;;;;;;;7.57;4.30;;;10.00;99.90;;;;;;4917021;29;20276;-73
2022/09/18 09:13:49;;;;;;;9.17;3.97;;;10.00;99.90;;;;;;4925831;29;20548;-73
2022/09/18 09:16:27;;;;;;;8.87;3.93;;;10.10;99.90;;;;;;4856344;29;20220;-74
2022/09/18 09:18:57;;;;;;;8.27;4.10;;;10.00;99.90;;;;;;4852410;29;20231;-74
2022/09/18 09:21:58;;;;;;;9.13;4.10;;;10.10;99.90;;;;;;4847549;29;20225;-75
2022/09/18 09:24:30;;;;;;;7.60;3.70;;;10.20;99.90;;;;;;4859014;29;20232;-74
2022/09/18 09:27:01;;;;;;;8.37;3.90;;;10.20;99.90;;;;;;4858570;29;20244;-73
2022/09/18 09:29:38;;;;;;;8.10;3.53;;;10.20;99.90;;;;;;4843530;29;20230;-73
2022/09/18 09:32:27;;;;;;;7.60;3.40;;;10.40;99.90;;;;;;4851575;29;20573;-72
2022/09/18 09:35:23;;;;;;;11.20;4.30;;;10.50;99.90;;;;;;4866984;29;20194;-71
2022/09/18 09:37:52;;;;;;;7.47;3.50;;;10.60;99.90;;;;;;4857197;29;20197;-74
2022/09/18 09:40:31;;;;;;;7.13;3.30;;;10.60;99.90;;;;;;4866269;29;20802;-73
2022/09/18 09:43:10;;;;;;;5.03;3.20;;;10.80;99.90;;;;;;4868188;29;20600;-71
2022/09/18 09:45:46;;;;;;;6.90;2.90;;;10.80;99.90;;;;;;4875224;29;20197;-73
2022/09/18 09:48:37;;;;;;;8.70;3.50;;;10.80;99.90;;;;;;4867399;29;20209;-72
2022/09/18 09:51:15;;;;;;;6.10;2.97;;;10.90;99.90;;;;;;4873115;29;20214;-71
2022/09/18 09:53:43;;;;;;;5.33;3.30;;;11.10;99.90;;;;;;4927452;29;20716;-73
2022/09/18 09:56:30;;;;;;;7.20;3.03;;;11.20;99.90;;;;;;4934206;29;20214;-74
2022/09/18 09:59:13;;;;;;;4.87;2.60;;;11.50;99.90;;;;;;4934641;29;20207;-74
2022/09/18 10:01:48;;;;;;;6.97;2.60;;;11.70;99.90;;;;;;4922801;29;20219;-74
2022/09/18 10:04:33;;;;;;;6.13;2.93;;;11.90;99.90;;;;;;4916601;29;20218;-70
2022/09/18 10:07:24;;;;;;;5.73;3.03;;;12.10;99.90;;;;;;4915604;29;20191;-73
2022/09/18 10:10:13;;;;;;;4.23;2.50;;;12.40;99.90;;;;;;4915216;29;20234;-73
2022/09/18 10:12:54;;;;;;;6.13;2.67;;;12.60;99.90;;;;;;4915213;29;20203;-73
2022/09/18 10:15:37;;;;;;;6.73;2.67;;;12.70;99.90;;;;;;4915171;29;20203;-74
2022/09/18 10:18:20;;;;;;;4.40;2.17;;;12.70;99.90;;;;;;4899892;29;20270;-71
2022/09/18 10:21:02;;;;;;;5.13;2.13;;;12.70;99.90;;;;;;4915482;29;20436;-72
2022/09/18 10:23:37;;;;;;;4.07;2.23;;;13.00;99.90;;;;;;4916237;29;20282;-72
2022/09/18 10:26:05;;;;;;;7.50;2.20;;;13.00;99.90;;;;;;4933230;29;20647;-72
2022/09/18 10:28:32;;;;;;;7.37;2.87;;;12.90;99.90;;;;;;4932624;29;20624;-76
2022/09/18 10:31:09;;;;;;;3.33;2.23;;;12.90;99.90;;;;;;4915366;29;20207;-73
2022/09/18 10:33:45;;;;;;;4.07;2.33;;;13.00;99.90;;;;;;4915442;29;20203;-73
2022/09/18 10:36:37;;;;;;;3.07;2.20;;;12.80;99.90;;;;;;4932753;29;20203;-74
2022/09/18 10:39:17;;;;;;;3.63;2.50;;;12.50;99.90;;;;;;4923884;29;20203;-70
2022/09/18 10:41:45;;;;;;;4.73;2.40;;;12.50;99.90;;;;;;4930518;29;20227;-70
2022/09/18 10:44:20;;;;;;;4.77;2.30;;;12.60;99.90;;;;;;4926546;29;20209;-73
2022/09/18 10:47:10;;;;;;;6.07;2.40;;;12.50;99.90;;;;;;4927270;29;20229;-74
2022/09/18 10:49:49;;;;;;;4.20;2.60;;;12.60;99.90;;;;;;4920035;29;20235;-72
2022/09/18 10:52:32;;;;;;;4.27;2.50;;;12.50;99.90;;;;;;4934434;29;20215;-74
2022/09/18 10:55:08;;;;;;;6.60;2.67;;;12.60;99.90;;;;;;4927571;29;20199;-73
2022/09/18 10:57:43;;;;;;;4.10;2.60;;;12.60;99.90;;;;;;4927218;29;20202;-73
2022/09/18 11:00:11;;;;;;;5.13;2.37;;;12.60;99.90;;;;;;4927719;29;20215;-75
2022/09/18 11:02:45;;;;;;;5.17;2.57;;;12.70;99.90;;;;;;4926938;29;20251;-73
2022/09/18 11:05:48;;;;;;;3.87;2.23;;;12.80;99.90;;;;;;4926798;29;20242;-75
2022/09/18 11:08:22;;;;;;;4.70;2.20;;;13.20;99.90;;;;;;4926704;29;20427;-74
2022/09/18 11:10:52;;;;;;;7.27;2.40;;;13.40;99.90;;;;;;4926742;29;20206;-72
2022/09/18 11:13:23;;;;;;;8.17;2.30;;;13.50;99.90;;;;;;4926908;29;20299;-74
2022/09/18 11:15:56;;;;;;;3.53;2.03;;;13.30;99.90;;;;;;4926172;29;20293;-73
2022/09/18 11:18:28;;;;;;;4.03;2.40;;;13.00;99.90;;;;;;4926114;29;20697;-71
2022/09/18 11:20:59;;;;;;;5.90;2.50;;;13.10;99.90;;;;;;4923590;29;20242;-71
2022/09/18 11:23:30;;;;;;;4.47;2.13;;;13.00;99.90;;;;;;4925898;29;20642;-73
2022/09/18 11:26:19;;;;;;;5.63;2.30;;;12.90;99.90;;;;;;4925572;29;20217;-73
2022/09/18 11:29:01;;;;;;;6.53;2.30;;;12.80;99.90;;;;;;4917904;29;20299;-72
2022/09/18 11:31:45;;;;;;;5.47;2.60;;;13.00;99.90;;;;;;4905234;29;20215;-75
2022/09/18 11:34:26;;;;;;;4.57;2.30;;;13.30;99.90;;;;;;4917879;29;20227;-74
2022/09/18 11:37:04;;;;;;;4.70;2.27;;;13.40;99.90;;;;;;4917863;29;20239;-73
2022/09/18 11:39:49;;;;;;;4.73;2.37;;;13.40;99.90;;;;;;4917952;29;20851;-75
2022/09/18 11:42:17;;;;;;;4.37;1.97;;;13.60;99.90;;;;;;4918781;29;20200;-75
2022/09/18 11:44:44;;;;;;;3.70;2.20;;;13.50;99.90;;;;;;4917477;29;20195;-72
2022/09/18 11:47:40;;;;;;;4.03;2.20;;;13.30;99.90;;;;;;4928435;29;20202;-75
2022/09/18 11:50:23;;;;;;;3.07;2.03;;;13.50;99.90;;;;;;4917566;29;20199;-73
2022/09/18 11:52:53;;;;;;;3.77;2.03;;;13.40;99.90;;;;;;4916670;29;20199;-74
2022/09/18 11:55:29;;;;;;;3.57;2.10;;;13.30;99.90;;;;;;4933639;29;20200;-74
2022/09/18 11:58:30;;;;;;;4.00;1.90;;;13.30;99.90;;;;;;4927066;29;20202;-72
2022/09/18 12:01:23;;;;;;;4.77;2.00;;;13.50;99.90;;;;;;4932833;29;20314;-74
2022/09/18 12:04:40;;;;;;;5.57;2.33;;;13.40;99.90;;;;;;4941556;29;20222;-74
2022/09/18 12:07:18;;;;;;;6.60;2.10;;;13.40;99.90;;;;;;4869931;29;20220;-72
2022/09/18 12:10:26;;;;;;;3.63;2.37;;;13.50;99.90;;;;;;4855959;29;20268;-72
2022/09/18 12:13:39;;;;;;;9.83;2.70;;;13.50;99.90;;;;;;4853176;29;20611;-72
2022/09/18 12:16:21;;;;;;;7.87;2.20;;;13.60;99.90;;;;;;4836441;29;20206;-74
2022/09/18 12:19:04;;;;;;;4.90;2.10;;;13.50;99.90;;;;;;4870473;29;20209;-72
2022/09/18 12:21:36;;;;;;;2.80;1.80;;;13.30;99.90;;;;;;4854264;29;20234;-73
2022/09/18 12:24:06;;;;;;;5.93;2.30;;;13.20;99.90;;;;;;4859296;29;20216;-74
2022/09/18 12:26:58;;;;;;;3.33;1.80;;;13.20;99.90;;;;;;4851594;29;20244;-73
2022/09/18 12:29:55;;;;;;;3.97;2.17;;;13.30;99.90;;;;;;4857544;29;20209;-72
2022/09/18 12:32:43;;;;;;;2.97;1.83;;;13.40;99.90;;;;;;4861515;29;20208;-73
2022/09/18 12:35:31;;;;;;;3.77;2.00;;;13.40;99.90;;;;;;4862965;29;20307;-73
2022/09/18 12:37:58;;;;;;;5.30;2.23;;;13.30;99.90;;;;;;4863281;29;20205;-71
2022/09/18 12:40:39;;;;;;;5.43;2.17;;;13.10;99.90;;;;;;4862723;29;20633;-73
2022/09/18 12:43:46;;;;;;;4.35;2.33;;;13.00;99.90;;;;;;4863754;29;20984;-74
2022/09/18 12:46:19;;;;;;;2.93;2.27;;;13.10;99.90;;;;;;4917066;29;20223;-74
2022/09/18 12:49:18;;;;;;;6.17;2.10;;;13.10;99.90;;;;;;4917697;29;20201;-74
2022/09/18 12:52:07;;;;;;;5.60;2.60;;;13.20;99.90;;;;;;4916290;29;20196;-70
2022/09/18 12:54:43;;;;;;;3.93;2.17;;;13.10;99.90;;;;;;4877712;29;20213;-70
2022/09/18 12:57:30;;;;;;;5.00;2.30;;;13.20;99.90;;;;;;4879951;29;20200;-69
2022/09/18 13:00:15;;;;;;;8.30;2.73;;;13.30;99.90;;;;;;4873480;29;20221;-77
2022/09/18 13:03:08;;;;;;;4.03;2.07;;;13.40;99.90;;;;;;4877699;29;20265;-75
2022/09/18 13:05:43;;;;;;;6.03;2.40;;;13.30;99.90;;;;;;4877352;29;20711;-74
2022/09/18 13:08:29;;;;;;;4.60;2.60;;;13.20;99.90;;;;;;4862410;29;20563;-74
2022/09/18 13:11:02;;;;;;;5.13;2.60;;;13.10;99.90;;;;;;4862392;29;20228;-75
2022/09/18 13:14:00;;;;;;;3.13;2.13;;;13.00;99.90;;;;;;4877411;29;20292;-74
2022/09/18 13:17:13;;;;;;;7.23;2.27;;;13.20;99.90;;;;;;4862278;29;20280;-74